Time;durP1;ratioP1;P1;durP2;ratioP2;P2;SDS_P1;SDS_P2;PMS_P1;PMS_P2;Temp;Humidity;BMP_temperature;BMP_pressure;BME280_temperature;BME280_humidity;BME280_pressure;Samples;Min_cycle;Max_cycle;Signal;HPM_P1;HPM_P2
2022/02/19 00:02:22;;;;;;;7.37;3.87;;;6.00;99.90;;;;;;4983608;28;20185;-83
2022/02/19 00:04:48;;;;;;;7.87;3.80;;;6.00;99.90;;;;;;4999946;28;20185;-82
2022/02/19 00:07:13;;;;;;;9.00;3.00;;;6.20;99.90;;;;;;5033731;28;20180;-83
2022/02/19 00:09:39;;;;;;;7.53;3.60;;;6.20;99.90;;;;;;5033663;28;20625;-82
2022/02/19 00:12:05;;;;;;;10.97;4.10;;;6.30;99.90;;;;;;5016359;28;20176;-82
2022/02/19 00:14:31;;;;;;;10.63;3.00;;;6.40;99.90;;;;;;5016216;28;20641;-83
2022/02/19 00:16:57;;;;;;;7.57;3.30;;;6.40;99.90;;;;;;5016425;28;20184;-82
2022/02/19 00:19:22;;;;;;;8.90;3.07;;;6.50;99.90;;;;;;5033884;28;20180;-83
2022/02/19 00:21:48;;;;;;;7.97;2.50;;;6.40;99.90;;;;;;4999577;28;20322;-82
2022/02/19 00:24:14;;;;;;;7.73;2.93;;;6.70;99.90;;;;;;5033566;28;20239;-83
2022/02/19 00:26:39;;;;;;;7.70;3.47;;;6.80;99.90;;;;;;5016204;28;20181;-82
2022/02/19 00:29:05;;;;;;;4.57;2.33;;;6.90;99.90;;;;;;5015967;28;20274;-82
2022/02/19 00:31:31;;;;;;;4.30;2.47;;;7.00;99.90;;;;;;5033377;28;20208;-83
2022/02/19 00:33:57;;;;;;;5.93;2.67;;;7.20;99.90;;;;;;5015780;28;20630;-82
2022/02/19 00:36:23;;;;;;;6.03;2.30;;;7.20;99.90;;;;;;5032441;28;20215;-82
2022/02/19 00:38:48;;;;;;;7.73;3.13;;;7.20;99.90;;;;;;5015576;28;20653;-83
2022/02/19 00:41:17;;;;;;;3.53;2.10;;;7.20;99.90;;;;;;5035776;28;20263;-82
2022/02/19 00:43:43;;;;;;;5.00;2.47;;;7.20;99.90;;;;;;5050394;28;20183;-82
2022/02/19 00:46:08;;;;;;;4.80;2.60;;;7.60;99.90;;;;;;5043790;28;20180;-82
2022/02/19 00:48:34;;;;;;;4.93;2.10;;;7.40;99.90;;;;;;5015379;28;20188;-82
2022/02/19 00:51:00;;;;;;;8.20;3.10;;;7.50;99.90;;;;;;5033069;28;20200;-84
2022/02/19 00:53:27;;;;;;;7.20;2.33;;;7.80;99.90;;;;;;5015509;28;20195;-83
2022/02/19 00:55:53;;;;;;;9.00;2.40;;;;;;;;;;5033129;28;20259;-82
2022/02/19 00:58:19;;;;;;;6.50;2.70;;;8.10;99.90;;;;;;5033244;28;20303;-82
2022/02/19 01:00:45;;;;;;;6.90;2.67;;;8.20;99.90;;;;;;5015311;28;20275;-82
2022/02/19 01:03:10;;;;;;;3.93;1.90;;;8.40;99.90;;;;;;5033067;28;20183;-83
2022/02/19 01:05:36;;;;;;;4.23;2.23;;;8.60;99.90;;;;;;5015322;28;20266;-83
2022/02/19 01:08:02;;;;;;;7.63;2.10;;;8.70;99.90;;;;;;5033093;28;20184;-83
2022/02/19 01:10:28;;;;;;;5.57;2.40;;;8.80;99.90;;;;;;5015678;28;20205;-83
2022/02/19 01:12:53;;;;;;;4.00;2.60;;;8.80;99.90;;;;;;5031906;28;20520;-83
2022/02/19 01:15:19;;;;;;;5.80;2.60;;;8.80;99.90;;;;;;5015743;28;20178;-82
2022/02/19 01:17:45;;;;;;;5.63;2.00;;;8.90;99.90;;;;;;5033300;28;20183;-83
2022/02/19 01:20:13;;;;;;;6.83;2.77;;;8.90;99.90;;;;;;4998959;28;20184;-83
2022/02/19 01:22:41;;;;;;;9.17;3.33;;;8.90;99.90;;;;;;5031462;28;20177;-82
2022/02/19 01:25:09;;;;;;;6.50;2.10;;;9.10;99.90;;;;;;5033356;28;20220;-83
2022/02/19 01:27:34;;;;;;;7.47;1.73;;;9.10;99.90;;;;;;5032935;28;20302;-85
2022/02/19 01:30:00;;;;;;;7.67;2.17;;;9.10;99.90;;;;;;5031563;28;20707;-83
2022/02/19 01:32:26;;;;;;;8.33;2.77;;;;;;;;;;5032713;28;20193;-83
2022/02/19 01:34:52;;;;;;;6.77;2.50;;;9.10;99.90;;;;;;5032506;28;20242;-83
2022/02/19 01:37:17;;;;;;;6.23;2.73;;;9.00;99.90;;;;;;5015011;28;20215;-83
2022/02/19 01:39:44;;;;;;;5.33;2.70;;;8.90;99.90;;;;;;5014811;28;20622;-82
2022/02/19 01:42:11;;;;;;;6.13;2.70;;;8.80;99.90;;;;;;5032935;28;20207;-83
2022/02/19 01:44:38;;;;;;;5.27;2.70;;;8.80;99.90;;;;;;5032431;28;20188;-84
2022/02/19 01:47:07;;;;;;;4.53;2.63;;;8.70;99.90;;;;;;5035741;28;20218;-82
2022/02/19 01:49:33;;;;;;;6.93;2.80;;;8.80;99.90;;;;;;5036316;28;20188;-83
2022/02/19 01:51:59;;;;;;;4.60;2.77;;;8.80;99.90;;;;;;5018821;28;20192;-83
2022/02/19 01:54:25;;;;;;;7.10;3.13;;;8.80;99.90;;;;;;5019209;28;20204;-82
2022/02/19 01:56:51;;;;;;;5.57;2.90;;;8.80;99.90;;;;;;5018566;28;20193;-82
2022/02/19 01:59:17;;;;;;;6.67;2.23;;;8.70;99.90;;;;;;5036343;28;20169;-82
2022/02/19 02:01:43;;;;;;;11.30;3.23;;;8.70;99.90;;;;;;5036076;28;20194;-82
2022/02/19 02:04:09;;;;;;;6.17;2.80;;;8.80;99.90;;;;;;5018554;28;20185;-83
2022/02/19 02:06:34;;;;;;;5.70;2.80;;;8.90;99.90;;;;;;5036395;28;20208;-83
2022/02/19 02:09:01;;;;;;;4.67;2.53;;;8.80;99.90;;;;;;5034814;28;20189;-84
2022/02/19 02:11:26;;;;;;;6.57;2.53;;;8.70;99.90;;;;;;5036362;28;20213;-84
2022/02/19 02:13:52;;;;;;;4.90;2.73;;;8.80;99.90;;;;;;5017951;28;20254;-82
2022/02/19 02:16:18;;;;;;;6.13;2.70;;;8.90;99.90;;;;;;5036438;28;20176;-82
2022/02/19 02:18:45;;;;;;;5.57;2.80;;;8.80;99.90;;;;;;5017990;28;20180;-83
2022/02/19 02:21:11;;;;;;;5.37;2.60;;;8.90;99.90;;;;;;5035975;28;20268;-83
2022/02/19 02:23:37;;;;;;;5.83;3.30;;;8.70;99.90;;;;;;5018246;28;20240;-83
2022/02/19 02:26:03;;;;;;;5.17;2.33;;;8.60;99.90;;;;;;5035684;28;20710;-83
2022/02/19 02:28:29;;;;;;;4.83;2.27;;;8.50;99.90;;;;;;5035877;28;20177;-83
2022/02/19 02:30:56;;;;;;;3.70;1.67;;;;;;;;;;5017784;28;20213;-84
2022/02/19 02:33:23;;;;;;;2.90;1.70;;;8.40;99.90;;;;;;5035864;28;20220;-83
2022/02/19 02:35:50;;;;;;;7.00;3.10;;;8.40;99.90;;;;;;5034363;28;20194;-83
2022/02/19 02:38:17;;;;;;;4.13;2.17;;;8.30;99.90;;;;;;5036226;28;20183;-83
2022/02/19 02:40:44;;;;;;;2.93;1.53;;;8.40;99.90;;;;;;5035602;28;20240;-83
2022/02/19 02:43:10;;;;;;;5.90;2.20;;;8.30;99.90;;;;;;5035752;28;20230;-83
2022/02/19 02:45:36;;;;;;;5.27;2.47;;;8.40;99.90;;;;;;5034371;28;20184;-83
2022/02/19 02:48:02;;;;;;;6.33;4.00;;;8.30;99.90;;;;;;5017564;28;20207;-83
2022/02/19 02:50:27;;;;;;;3.50;1.93;;;8.30;99.90;;;;;;5018066;28;20213;-83
2022/02/19 02:52:53;;;;;;;3.43;2.03;;;8.20;99.90;;;;;;5035410;28;20177;-84
2022/02/19 02:55:19;;;;;;;3.97;1.90;;;8.20;99.90;;;;;;5034487;28;20185;-83
2022/02/19 02:57:44;;;;;;;4.17;2.03;;;8.20;99.90;;;;;;5035219;28;20184;-83
2022/02/19 03:00:12;;;;;;;4.33;2.13;;;8.10;99.90;;;;;;5035677;28;20188;-83
2022/02/19 03:02:39;;;;;;;4.23;2.57;;;8.00;99.90;;;;;;5033919;28;20189;-84
2022/02/19 03:05:06;;;;;;;4.30;2.77;;;8.00;99.90;;;;;;5034328;28;20346;-83
2022/02/19 03:07:33;;;;;;;6.53;2.63;;;8.00;99.90;;;;;;5034060;28;20200;-83
2022/02/19 03:09:59;;;;;;;6.33;2.80;;;8.10;99.90;;;;;;5035430;28;20204;-83
2022/02/19 03:12:25;;;;;;;7.30;2.17;;;8.10;99.90;;;;;;5017614;28;20196;-83
2022/02/19 03:14:51;;;;;;;5.20;2.40;;;8.20;99.90;;;;;;5034055;28;20266;-84
2022/02/19 03:17:17;;;;;;;8.03;2.63;;;8.20;99.90;;;;;;5035021;28;20648;-83
2022/02/19 03:19:43;;;;;;;6.03;2.70;;;8.10;99.90;;;;;;5035334;28;20181;-83
2022/02/19 03:22:08;;;;;;;5.33;2.43;;;8.20;99.90;;;;;;5035485;28;20173;-83
2022/02/19 03:24:35;;;;;;;4.43;2.50;;;8.10;99.90;;;;;;5017183;28;20238;-84
2022/02/19 03:27:02;;;;;;;4.47;1.87;;;8.20;99.90;;;;;;5017569;28;20188;-82
2022/02/19 03:29:29;;;;;;;4.33;2.40;;;8.20;99.90;;;;;;5035251;28;20173;-83
2022/02/19 03:31:55;;;;;;;3.13;2.00;;;8.30;99.90;;;;;;5034788;28;20254;-84
2022/02/19 03:34:21;;;;;;;3.37;2.00;;;8.30;99.90;;;;;;5033936;28;20180;-83
2022/02/19 03:36:47;;;;;;;4.63;2.20;;;8.20;99.90;;;;;;5027832;28;20176;-83
2022/02/19 03:39:13;;;;;;;6.20;2.43;;;8.30;99.90;;;;;;5047699;28;20219;-83
2022/02/19 03:41:38;;;;;;;3.80;2.10;;;8.30;99.90;;;;;;5031133;28;20188;-83
2022/02/19 03:44:04;;;;;;;4.13;2.63;;;8.20;99.90;;;;;;5048753;28;20187;-84
2022/02/19 03:46:31;;;;;;;9.67;2.83;;;8.20;99.90;;;;;;5021758;28;20211;-83
2022/02/19 03:48:57;;;;;;;5.00;2.47;;;8.20;99.90;;;;;;5058439;28;20157;-89
2022/02/19 03:51:22;;;;;;;6.23;2.73;;;8.10;99.90;;;;;;5058506;28;20216;-83
2022/02/19 03:53:48;;;;;;;4.47;2.80;;;;;;;;;;5058984;28;20168;-83
2022/02/19 03:56:14;;;;;;;6.77;2.40;;;8.10;99.90;;;;;;5054138;28;20185;-83
2022/02/19 03:58:40;;;;;;;4.77;2.20;;;8.10;99.90;;;;;;5053093;28;20198;-82
2022/02/19 04:01:06;;;;;;;3.97;1.40;;;8.00;99.90;;;;;;5039324;28;20289;-83
2022/02/19 04:03:31;;;;;;;3.53;2.03;;;8.00;99.90;;;;;;5058623;28;20193;-83
2022/02/19 04:05:58;;;;;;;4.80;2.00;;;8.10;99.90;;;;;;5058186;28;20176;-91
2022/02/19 04:08:24;;;;;;;2.83;1.57;;;8.20;99.90;;;;;;5054358;28;20195;-83
2022/02/19 04:10:51;;;;;;;2.53;1.57;;;8.20;99.90;;;;;;5016864;28;20216;-83
2022/02/19 04:13:16;;;;;;;4.27;1.33;;;8.30;99.90;;;;;;5016691;28;20192;-82
2022/02/19 04:15:42;;;;;;;3.50;1.40;;;8.30;99.90;;;;;;5033903;28;20184;-82
2022/02/19 04:18:08;;;;;;;2.63;1.40;;;8.30;99.90;;;;;;5016215;28;20184;-83
2022/02/19 04:20:34;;;;;;;3.73;1.53;;;8.30;99.90;;;;;;5032614;28;20550;-82
2022/02/19 04:22:59;;;;;;;3.43;1.23;;;8.30;99.90;;;;;;5016116;28;20184;-84
2022/02/19 04:25:26;;;;;;;1.63;1.27;;;8.30;99.90;;;;;;5002065;28;20674;-83
2022/02/19 04:28:00;;;;;;;2.90;1.33;;;8.30;99.90;;;;;;5041469;28;20641;-82
2022/02/19 04:30:25;;;;;;;3.33;1.00;;;8.30;99.90;;;;;;5032331;28;20570;-83
2022/02/19 04:32:56;;;;;;;2.60;1.00;;;8.30;99.90;;;;;;5033478;28;20192;-82
2022/02/19 04:35:22;;;;;;;4.57;1.20;;;8.30;99.90;;;;;;5032005;28;20622;-83
2022/02/19 04:37:48;;;;;;;3.83;1.33;;;8.30;99.90;;;;;;5033800;28;20234;-82
2022/02/19 04:40:14;;;;;;;8.70;1.40;;;8.30;99.90;;;;;;5015525;28;20184;-82
2022/02/19 04:42:40;;;;;;;3.37;1.10;;;8.30;99.90;;;;;;5033000;28;20183;-83
2022/02/19 04:45:06;;;;;;;4.20;1.10;;;;;;;;;;5033037;28;20177;-83
2022/02/19 04:47:34;;;;;;;1.93;1.00;;;8.20;99.90;;;;;;4999301;28;20223;-83
2022/02/19 04:50:00;;;;;;;6.20;1.57;;;8.10;99.90;;;;;;4999263;28;20212;-83
2022/02/19 04:52:26;;;;;;;2.80;0.97;;;8.10;99.90;;;;;;5031624;28;20177;-82
2022/02/19 04:54:51;;;;;;;1.70;1.10;;;8.10;99.90;;;;;;5015576;28;20199;-83
2022/02/19 04:57:17;;;;;;;2.30;1.10;;;8.10;99.90;;;;;;5032597;28;20647;-83
2022/02/19 04:59:43;;;;;;;2.80;1.23;;;8.00;99.90;;;;;;5015284;28;20625;-82
2022/02/19 05:02:08;;;;;;;2.67;1.20;;;8.00;98.40;;;;;;5032604;28;20184;-83
2022/02/19 05:04:34;;;;;;;2.13;0.97;;;7.90;99.10;;;;;;5031795;28;20187;-82
2022/02/19 05:07:00;;;;;;;6.17;1.40;;;7.90;97.60;;;;;;5031634;28;20187;-83
2022/02/19 05:09:25;;;;;;;5.07;1.03;;;7.90;97.30;;;;;;5014913;28;20295;-82
2022/02/19 05:11:51;;;;;;;6.40;1.53;;;7.80;98.00;;;;;;5031418;28;20216;-82
2022/02/19 05:14:17;;;;;;;5.27;1.40;;;7.80;96.80;;;;;;5015239;28;20651;-82
2022/02/19 05:16:42;;;;;;;2.73;1.40;;;7.70;98.00;;;;;;5033084;28;20176;-82
2022/02/19 05:19:08;;;;;;;3.07;1.20;;;7.60;99.30;;;;;;5016196;28;20180;-82
2022/02/19 05:21:34;;;;;;;3.97;1.53;;;7.50;99.90;;;;;;5003058;28;20542;-82
2022/02/19 05:23:59;;;;;;;2.43;1.27;;;7.50;99.90;;;;;;4999515;28;20319;-82
2022/02/19 05:26:25;;;;;;;3.43;1.10;;;;;;;;;;5016804;28;20177;-82
2022/02/19 05:28:51;;;;;;;2.53;1.20;;;7.40;99.90;;;;;;5017051;28;20174;-82
2022/02/19 05:31:17;;;;;;;3.63;1.10;;;7.30;99.90;;;;;;5016733;28;20217;-82
2022/02/19 05:33:42;;;;;;;4.50;1.00;;;7.30;99.90;;;;;;5015912;28;20185;-82
2022/02/19 05:36:08;;;;;;;1.53;0.90;;;7.30;99.90;;;;;;5015898;28;20178;-82
2022/02/19 05:38:34;;;;;;;2.10;0.90;;;7.30;99.90;;;;;;5015686;28;20190;-82
2022/02/19 05:40:59;;;;;;;7.33;1.00;;;7.20;99.90;;;;;;5016960;28;20355;-84
2022/02/19 05:43:25;;;;;;;2.07;1.00;;;7.20;99.90;;;;;;5014963;28;20189;-83
2022/02/19 05:45:51;;;;;;;3.33;1.10;;;7.20;99.90;;;;;;5015546;28;20185;-82
2022/02/19 05:48:17;;;;;;;4.63;1.23;;;7.20;99.10;;;;;;5031973;28;20235;-83
2022/02/19 05:50:45;;;;;;;2.30;1.10;;;7.30;99.30;;;;;;5032117;28;20231;-82
2022/02/19 05:53:12;;;;;;;1.40;1.10;;;7.30;98.10;;;;;;5017037;28;20260;-82
2022/02/19 05:55:38;;;;;;;3.33;1.10;;;7.30;97.90;;;;;;5016571;28;20284;-81
2022/02/19 05:58:04;;;;;;;2.03;1.07;;;7.30;96.80;;;;;;5016800;28;20182;-82
2022/02/19 06:00:30;;;;;;;1.07;0.97;;;7.30;94.90;;;;;;5015358;28;20658;-82
2022/02/19 06:02:56;;;;;;;2.70;1.10;;;7.30;95.40;;;;;;5031868;28;20635;-82
2022/02/19 06:05:21;;;;;;;1.27;0.80;;;7.30;93.40;;;;;;5030439;28;20199;-82
2022/02/19 06:07:47;;;;;;;1.13;0.90;;;7.30;93.60;;;;;;5034788;28;20177;-82
2022/02/19 06:10:16;;;;;;;4.33;1.00;;;7.50;94.10;;;;;;5001907;28;20208;-83
2022/02/19 06:12:45;;;;;;;3.97;1.53;;;7.40;92.30;;;;;;5036125;28;20185;-83
2022/02/19 06:15:11;;;;;;;2.83;1.20;;;8.10;96.90;;;;;;5034379;28;20247;-84
2022/02/19 06:17:37;;;;;;;2.80;1.10;;;7.40;95.30;;;;;;5034901;28;20184;-83
2022/02/19 06:20:03;;;;;;;2.27;1.00;;;7.30;96.10;;;;;;5036067;28;20184;-84
2022/02/19 06:22:29;;;;;;;2.67;1.50;;;;;;;;;;5034394;28;20570;-83
2022/02/19 06:24:55;;;;;;;3.33;1.30;;;;;;;;;;5046702;28;20627;-84
2022/02/19 06:27:21;;;;;;;4.47;1.27;;;7.50;99.90;;;;;;5047191;28;20196;-83
2022/02/19 06:29:47;;;;;;;1.53;0.97;;;7.50;99.90;;;;;;5053637;28;20326;-87
2022/02/19 06:32:13;;;;;;;1.83;1.20;;;7.50;99.90;;;;;;5019429;28;20192;-83
2022/02/19 06:34:39;;;;;;;1.83;1.10;;;7.50;99.90;;;;;;5035485;28;20241;-83
2022/02/19 06:37:05;;;;;;;3.67;1.33;;;7.50;99.90;;;;;;5053220;28;20244;-83
2022/02/19 06:39:30;;;;;;;8.87;1.20;;;7.50;99.90;;;;;;5035488;28;20560;-82
2022/02/19 06:41:56;;;;;;;1.40;0.80;;;7.60;99.90;;;;;;5035390;28;20188;-84
2022/02/19 06:44:22;;;;;;;3.23;1.00;;;7.60;99.90;;;;;;5035402;28;20626;-85
2022/02/19 06:46:47;;;;;;;5.40;1.40;;;7.50;99.90;;;;;;5035854;28;20184;-85
2022/02/19 06:49:13;;;;;;;3.83;1.50;;;7.50;99.90;;;;;;5053127;28;20554;-83
2022/02/19 06:51:39;;;;;;;3.53;1.30;;;7.50;99.90;;;;;;5035414;28;20583;-83
2022/02/19 06:54:05;;;;;;;3.43;1.10;;;7.50;99.90;;;;;;5034869;28;20262;-83
2022/02/19 06:56:31;;;;;;;6.20;2.03;;;7.50;99.90;;;;;;5036418;28;20274;-82
2022/02/19 06:59:00;;;;;;;3.90;1.40;;;7.50;99.90;;;;;;5053741;28;20191;-81
2022/02/19 07:01:27;;;;;;;4.00;1.40;;;7.40;99.90;;;;;;5037288;28;20278;-84
2022/02/19 07:03:54;;;;;;;2.03;0.93;;;7.40;99.90;;;;;;5035377;28;20488;-83
2022/02/19 07:06:21;;;;;;;1.70;0.90;;;7.50;99.90;;;;;;5002760;28;20195;-83
2022/02/19 07:08:47;;;;;;;7.67;2.50;;;7.50;99.90;;;;;;5052280;28;20191;-82
2022/02/19 07:11:13;;;;;;;2.83;1.10;;;7.60;99.90;;;;;;5053413;28;20268;-81
2022/02/19 07:13:41;;;;;;;4.20;1.37;;;7.60;99.90;;;;;;5034915;28;20215;-81
2022/02/19 07:16:07;;;;;;;4.83;1.60;;;7.60;99.90;;;;;;5018827;28;20188;-83
2022/02/19 07:18:33;;;;;;;4.73;1.37;;;7.50;99.90;;;;;;5052666;28;20341;-83
2022/02/19 07:20:59;;;;;;;2.77;1.30;;;7.40;99.90;;;;;;5053134;28;20192;-84
2022/02/19 07:23:25;;;;;;;4.70;1.13;;;6.30;99.90;;;;;;5034632;28;20195;-83
2022/02/19 07:25:51;;;;;;;1.93;1.10;;;7.40;99.90;;;;;;5052229;28;20211;-84
2022/02/19 07:28:16;;;;;;;5.67;1.30;;;7.30;99.90;;;;;;5035283;28;20644;-82
2022/02/19 07:30:43;;;;;;;2.23;1.23;;;7.20;99.90;;;;;;5050410;28;20285;-83
2022/02/19 07:33:10;;;;;;;2.20;1.17;;;7.20;99.90;;;;;;5034016;28;20682;-83
2022/02/19 07:35:36;;;;;;;2.63;1.10;;;7.10;99.90;;;;;;5051615;28;20188;-80
2022/02/19 07:38:02;;;;;;;1.77;0.87;;;;;;;;;;5034156;28;20180;-81
2022/02/19 07:40:28;;;;;;;1.47;0.93;;;7.20;99.90;;;;;;5034840;28;20227;-84
2022/02/19 07:42:55;;;;;;;3.33;1.07;;;7.20;99.90;;;;;;5052979;28;20188;-83
2022/02/19 07:45:24;;;;;;;4.93;1.27;;;7.30;99.90;;;;;;5019944;28;20191;-82
2022/02/19 07:47:50;;;;;;;3.43;1.07;;;7.30;99.90;;;;;;5035527;28;20176;-82
2022/02/19 07:58:33;;;;;;;5.23;1.13;;;7.50;99.90;;;;;;5054420;28;20234;-83
2022/02/19 08:01:04;;;;;;;5.27;1.40;;;7.50;99.90;;;;;;5054493;28;20215;-81
2022/02/19 08:03:32;;;;;;;3.73;1.20;;;7.50;99.90;;;;;;5054506;28;20188;-81
2022/02/19 08:05:58;;;;;;;1.87;0.90;;;7.50;99.90;;;;;;5042715;28;20180;-81
2022/02/19 08:08:24;;;;;;;3.40;1.37;;;7.60;99.90;;;;;;5050946;28;20187;-82
2022/02/19 08:10:50;;;;;;;2.53;1.17;;;7.70;99.90;;;;;;5039088;28;20718;-81
2022/02/19 08:13:17;;;;;;;1.43;1.30;;;7.80;99.10;;;;;;5035902;28;20184;-81
2022/02/19 08:15:45;;;;;;;2.67;1.20;;;7.90;97.80;;;;;;5053469;28;20186;-82
2022/02/19 08:18:12;;;;;;;7.47;1.20;;;8.00;93.40;;;;;;5035249;28;20183;-81
2022/02/19 08:20:44;;;;;;;9.13;1.20;;;8.10;88.90;;;;;;5053727;28;20223;-82
2022/02/19 08:23:11;;;;;;;3.13;1.40;;;8.30;80.70;;;;;;5036723;28;20187;-79
2022/02/19 08:25:38;;;;;;;3.93;1.20;;;;;;;;;;5036046;28;20227;-81
2022/02/19 08:28:05;;;;;;;3.20;1.10;;;8.50;72.50;;;;;;5035597;28;20275;-83
2022/02/19 08:30:33;;;;;;;1.67;0.87;;;8.70;65.90;;;;;;5035656;28;20698;-83
2022/02/19 08:32:59;;;;;;;3.77;1.10;;;8.60;66.40;;;;;;5019106;28;20179;-81
2022/02/19 08:35:24;;;;;;;2.20;1.20;;;8.70;64.90;;;;;;5053061;28;20191;-84
2022/02/19 08:37:50;;;;;;;1.70;1.00;;;8.80;64.40;;;;;;5021399;28;20180;-81
2022/02/19 08:40:16;;;;;;;9.03;1.03;;;8.80;63.90;;;;;;5036996;28;20198;-82
2022/02/19 08:42:43;;;;;;;1.93;1.17;;;8.90;63.50;;;;;;5033059;28;20667;-82
2022/02/19 08:45:09;;;;;;;2.90;1.37;;;9.00;63.30;;;;;;5032939;28;20195;-81
2022/02/19 08:47:35;;;;;;;1.87;1.23;;;9.00;64.30;;;;;;5034420;28;20188;-81
2022/02/19 08:50:01;;;;;;;3.57;1.20;;;;;;;;;;5034454;28;20316;-83
2022/02/19 08:52:27;;;;;;;10.07;1.50;;;9.10;63.80;;;;;;5052820;28;20187;-81
2022/02/19 08:54:54;;;;;;;3.13;1.10;;;;;;;;;;5018412;28;20192;-84
2022/02/19 08:57:19;;;;;;;4.73;1.40;;;9.10;60.10;;;;;;5034790;28;20192;-82
2022/02/19 08:59:46;;;;;;;4.20;1.30;;;;;;;;;;5034966;28;20195;-81
2022/02/19 09:02:12;;;;;;;4.33;1.57;;;9.10;58.80;;;;;;5018654;28;20187;-83
2022/02/19 09:04:37;;;;;;;3.03;1.20;;;9.40;64.20;;;;;;5050218;28;20184;-82
2022/02/19 09:07:03;;;;;;;4.90;1.50;;;9.10;59.10;;;;;;5035122;28;20191;-81
2022/02/19 09:09:29;;;;;;;2.83;1.23;;;9.00;58.40;;;;;;5033579;28;20186;-82
2022/02/19 09:11:55;;;;;;;2.47;0.90;;;9.00;57.40;;;;;;5001785;28;20645;-85
2022/02/19 09:14:20;;;;;;;5.10;1.20;;;9.00;58.70;;;;;;5029870;28;20699;-83
2022/02/19 09:16:46;;;;;;;4.90;1.53;;;8.90;59.50;;;;;;5035070;28;20233;-82
2022/02/19 09:19:12;;;;;;;4.43;1.43;;;8.90;60.00;;;;;;5051959;28;20187;-82
2022/02/19 09:21:40;;;;;;;2.13;1.03;;;8.80;59.80;;;;;;5015177;28;20556;-84
2022/02/19 09:24:06;;;;;;;5.60;1.27;;;;;;;;;;5034382;28;20235;-84
2022/02/19 09:26:32;;;;;;;3.63;1.20;;;8.60;59.90;;;;;;5031728;28;20263;-84
2022/02/19 09:28:57;;;;;;;5.77;1.53;;;8.60;59.80;;;;;;5051170;28;20192;-82
2022/02/19 09:31:23;;;;;;;5.67;1.23;;;8.60;58.70;;;;;;5047559;28;20568;-83
2022/02/19 09:33:49;;;;;;;4.77;1.57;;;8.60;59.20;;;;;;5005121;28;20179;-81
2022/02/19 09:36:16;;;;;;;2.77;1.60;;;8.60;59.00;;;;;;5018326;28;20199;-83
2022/02/19 09:38:42;;;;;;;3.20;1.47;;;;;;;;;;5035273;28;20195;-83
2022/02/19 09:41:11;;;;;;;4.50;1.83;;;8.60;58.90;;;;;;5053839;28;20196;-84
2022/02/19 09:43:38;;;;;;;2.90;1.13;;;8.60;59.80;;;;;;5026888;28;20225;-82
2022/02/19 09:46:05;;;;;;;7.90;1.53;;;8.60;59.70;;;;;;5045492;28;20176;-83
2022/02/19 09:48:31;;;;;;;2.43;1.27;;;8.70;60.40;;;;;;5046152;28;20239;-82
2022/02/19 09:50:58;;;;;;;4.13;1.80;;;;;;;;;;5059810;28;20216;-81
2022/02/19 09:53:28;;;;;;;2.80;1.30;;;8.60;59.10;;;;;;5069801;28;20231;-83
2022/02/19 09:55:55;;;;;;;6.43;1.40;;;8.60;60.00;;;;;;5059048;28;20211;-82
2022/02/19 09:58:22;;;;;;;1.73;1.30;;;8.50;59.40;;;;;;5077170;28;20168;-82
2022/02/19 10:00:49;;;;;;;6.00;1.37;;;8.40;60.50;;;;;;5077241;28;20164;-83
2022/02/19 10:03:20;;;;;;;3.57;1.13;;;8.50;60.70;;;;;;5073026;28;20202;-85
2022/02/19 10:05:46;;;;;;;4.37;1.13;;;8.50;60.90;;;;;;5061587;28;20191;-82
2022/02/19 10:08:12;;;;;;;2.60;1.47;;;8.50;60.10;;;;;;5049274;28;20184;-83
2022/02/19 10:10:41;;;;;;;4.83;1.30;;;8.40;59.90;;;;;;5059857;28;20219;-89
2022/02/19 10:13:07;;;;;;;8.60;1.70;;;8.40;60.60;;;;;;5061886;28;20188;-90
2022/02/19 10:15:48;;;;;;;4.20;1.27;;;8.30;60.70;;;;;;5069074;28;20187;-84
2022/02/19 10:18:44;;;;;;;6.50;1.70;;;8.30;61.90;;;;;;5058885;28;20183;-84
2022/02/19 10:21:11;;;;;;;4.73;1.63;;;8.20;62.40;;;;;;5036522;28;20298;-83
2022/02/19 10:23:42;;;;;;;4.63;1.47;;;8.20;63.40;;;;;;5039104;28;20633;-85
2022/02/19 10:26:09;;;;;;;2.73;1.20;;;8.20;63.00;;;;;;5056799;28;20207;-83
2022/02/19 10:28:35;;;;;;;6.10;1.70;;;8.20;62.40;;;;;;5038017;28;20250;-82
2022/02/19 10:31:15;;;;;;;5.17;1.50;;;8.30;62.50;;;;;;5055472;28;20219;-82
2022/02/19 10:33:42;;;;;;;4.63;1.47;;;8.30;62.00;;;;;;5051848;28;20245;-83
2022/02/19 10:36:21;;;;;;;5.00;1.43;;;8.30;60.70;;;;;;5037101;28;20199;-83
2022/02/19 10:38:59;;;;;;;4.70;1.80;;;8.40;66.80;;;;;;5055169;28;20267;-83
2022/02/19 10:41:35;;;;;;;3.03;1.00;;;8.30;60.50;;;;;;5037194;28;20282;-85
2022/02/19 10:44:25;;;;;;;3.67;1.50;;;8.30;60.80;;;;;;5055140;28;20184;-83
2022/02/19 10:46:52;;;;;;;5.30;1.57;;;8.30;61.20;;;;;;5059673;28;20213;-87
2022/02/19 10:49:18;;;;;;;6.23;1.60;;;8.50;65.10;;;;;;5053072;28;20192;-84
2022/02/19 10:51:44;;;;;;;3.87;1.20;;;;;;;;;;5053047;28;20546;-83
2022/02/19 10:54:12;;;;;;;2.47;0.97;;;8.50;58.80;;;;;;5069193;28;20176;-83
2022/02/19 10:56:39;;;;;;;2.90;1.13;;;8.50;57.80;;;;;;5067231;28;20222;-83
2022/02/19 10:59:13;;;;;;;3.73;1.10;;;8.50;58.00;;;;;;5061635;28;20210;-85
2022/02/19 11:01:44;;;;;;;5.07;1.10;;;8.50;58.80;;;;;;5055366;28;20188;-82
2022/02/19 11:04:13;;;;;;;2.10;1.10;;;8.50;56.80;;;;;;5054561;28;20259;-84
2022/02/19 11:06:40;;;;;;;1.97;1.10;;;8.40;57.40;;;;;;5034442;28;20192;-83
2022/02/19 11:09:08;;;;;;;3.17;1.20;;;8.30;56.20;;;;;;5054742;28;20195;-84
2022/02/19 11:11:35;;;;;;;3.43;1.17;;;8.30;57.10;;;;;;5054850;28;20228;-83
2022/02/19 11:14:13;;;;;;;5.43;1.27;;;8.30;57.60;;;;;;5054325;28;20715;-82
2022/02/19 11:16:39;;;;;;;2.73;1.10;;;8.20;56.90;;;;;;5048277;28;20171;-82
2022/02/19 11:19:06;;;;;;;1.77;1.20;;;8.20;57.10;;;;;;5050274;28;20184;-82
2022/02/19 11:21:33;;;;;;;2.60;1.20;;;8.10;57.10;;;;;;5052472;28;20192;-84
2022/02/19 11:24:08;;;;;;;2.40;1.10;;;8.30;62.20;;;;;;5052359;28;20235;-83
2022/02/19 11:26:34;;;;;;;5.93;1.30;;;8.20;58.20;;;;;;5049884;28;20266;-82
2022/02/19 11:29:06;;;;;;;3.67;1.23;;;8.20;59.30;;;;;;5035554;28;20652;-82
2022/02/19 11:31:33;;;;;;;3.47;1.63;;;8.10;59.70;;;;;;5050262;28;20199;-83
2022/02/19 11:34:04;;;;;;;4.87;1.47;;;8.20;59.70;;;;;;5032808;28;20188;-84
2022/02/19 11:36:31;;;;;;;6.43;1.50;;;8.10;60.30;;;;;;5052170;28;20195;-83
2022/02/19 11:38:57;;;;;;;3.13;1.07;;;;;;;;;;5015304;28;20180;-83
2022/02/19 11:41:40;;;;;;;3.27;1.00;;;6.60;59.70;;;;;;5054432;28;20199;-82
2022/02/19 11:44:23;;;;;;;3.83;1.10;;;8.10;60.70;;;;;;5034596;28;20700;-82
2022/02/19 11:46:51;;;;;;;2.60;1.10;;;8.10;61.30;;;;;;5051573;28;20275;-83
2022/02/19 11:49:23;;;;;;;3.63;1.30;;;8.00;60.00;;;;;;5052547;28;20188;-83
2022/02/19 11:52:06;;;;;;;2.27;1.20;;;8.00;60.70;;;;;;5053907;28;20208;-81
2022/02/19 11:54:33;;;;;;;2.07;1.13;;;8.10;59.60;;;;;;5052950;28;20184;-82
2022/02/19 11:57:16;;;;;;;1.77;1.00;;;8.00;60.00;;;;;;5050972;28;20242;-82
2022/02/19 11:59:49;;;;;;;2.53;1.40;;;8.00;60.80;;;;;;5019832;28;20249;-84
2022/02/19 12:02:14;;;;;;;3.00;1.37;;;8.00;61.40;;;;;;5053177;28;20198;-84
2022/02/19 12:04:41;;;;;;;2.67;1.23;;;8.10;61.30;;;;;;5033314;28;20188;-82
2022/02/19 12:07:12;;;;;;;3.97;1.57;;;8.10;61.60;;;;;;5034846;28;20191;-81
2022/02/19 12:10:01;;;;;;;2.07;0.87;;;8.10;60.10;;;;;;5050776;28;20180;-84
2022/02/19 12:12:27;;;;;;;1.27;1.17;;;7.90;64.70;;;;;;5048745;28;20554;-84
2022/02/19 12:14:57;;;;;;;3.00;1.10;;;8.10;60.70;;;;;;5034485;28;20180;-85
2022/02/19 12:17:26;;;;;;;4.47;1.40;;;8.10;60.10;;;;;;5050337;28;20283;-85
2022/02/19 12:19:51;;;;;;;2.77;1.27;;;8.10;60.40;;;;;;5050987;28;20188;-83
2022/02/19 12:22:49;;;;;;;2.60;1.30;;;8.00;60.80;;;;;;5051735;28;20529;-82
2022/02/19 12:25:16;;;;;;;6.13;1.23;;;7.90;61.20;;;;;;5051426;28;20259;-83
2022/02/19 12:27:45;;;;;;;1.50;1.20;;;;;;;;;;5034114;28;20188;-86
2022/02/19 12:30:20;;;;;;;2.00;1.20;;;7.90;60.10;;;;;;5034413;28;20249;-84
2022/02/19 12:32:48;;;;;;;4.47;1.40;;;7.80;60.00;;;;;;5053044;28;20197;-81
2022/02/19 12:35:14;;;;;;;4.77;1.20;;;;;;;;;;5052587;28;20655;-83
2022/02/19 12:37:41;;;;;;;1.53;1.10;;;;;;;;;;5052048;28;20648;-81
2022/02/19 12:40:08;;;;;;;2.90;1.27;;;7.80;61.20;;;;;;5034475;28;20192;-83
2022/02/19 12:42:34;;;;;;;3.20;1.57;;;7.80;61.90;;;;;;5034854;28;20183;-83
2022/02/19 12:45:04;;;;;;;4.53;1.97;;;7.80;61.70;;;;;;5054587;28;20180;-83
2022/02/19 12:47:32;;;;;;;5.37;1.57;;;7.80;61.40;;;;;;5053682;28;20533;-82
2022/02/19 12:49:58;;;;;;;3.47;1.57;;;7.90;62.10;;;;;;5034724;28;20588;-84
2022/02/19 12:52:24;;;;;;;3.27;1.37;;;7.80;62.30;;;;;;5052827;28;20180;-83
2022/02/19 12:54:51;;;;;;;4.17;1.80;;;7.90;61.70;;;;;;5035167;28;20244;-83
2022/02/19 12:57:19;;;;;;;3.23;0.97;;;7.80;61.20;;;;;;5035800;28;20184;-86
2022/02/19 12:59:47;;;;;;;1.50;1.00;;;7.80;60.70;;;;;;5019293;28;20180;-84
2022/02/19 13:02:20;;;;;;;4.80;1.27;;;7.90;60.90;;;;;;5034265;28;20225;-84
2022/02/19 13:04:46;;;;;;;2.17;1.20;;;7.90;60.80;;;;;;5034541;28;20186;-85
2022/02/19 13:07:20;;;;;;;5.20;1.47;;;7.80;61.90;;;;;;5051986;28;20214;-86
2022/02/19 13:09:54;;;;;;;2.47;1.20;;;7.80;61.80;;;;;;5051760;28;20182;-84
2022/02/19 13:12:37;;;;;;;2.90;1.13;;;7.80;63.00;;;;;;5050925;28;20183;-84